Time,TemperatureF,DewpointF,PressureIn,WindDirection,WindDirectionDegrees,WindSpeedMPH,WindSpeedGustMPH,Humidity,HourlyPrecipIn,Conditions,Clouds,dailyrainin,SoftwareType,DateUTC
2013-05-24 00:02:00,44.5,39.4,30.02,NNW,342,0.0,0.0,82,0.00,,OVC016,0.00,VWS V14.01,2013-05-24 04:02:00,
2013-05-24 00:07:00,44.5,39.4,30.02,North,1,0.0,0.0,82,0.00,,OVC016,0.00,VWS V14.01,2013-05-24 04:07:00,
2013-05-24 00:13:00,44.6,39.5,30.02,North,349,0.0,0.0,82,0.00,,OVC016,0.00,VWS V14.01,2013-05-24 04:13:00,
2013-05-24 00:22:00,44.8,39.7,30.02,North,357,0.0,0.0,82,0.00,,FEW024,0.00,VWS V14.01,2013-05-24 04:22:00,
2013-05-24 00:27:00,44.8,39.7,30.02,North,1,0.0,0.0,82,0.00,,FEW024,0.00,VWS V14.01,2013-05-24 04:27:00,
2013-05-24 00:32:00,44.8,39.7,30.03,North,356,0.0,0.0,82,0.00,,FEW024,0.00,VWS V14.01,2013-05-24 04:32:00,
2013-05-24 00:37:00,44.8,39.7,30.03,North,357,0.0,0.0,82,0.00,,FEW024,0.00,VWS V14.01,2013-05-24 04:37:00,
2013-05-24 00:42:00,44.8,39.3,30.03,NNE,18,0.0,0.0,81,0.00,,FEW024,0.00,VWS V14.01,2013-05-24 04:42:00,
2013-05-24 00:47:00,44.9,39.4,30.03,North,356,0.0,0.0,81,0.00,,FEW024,0.00,VWS V14.01,2013-05-24 04:47:00,
2013-05-24 00:52:00,44.9,39.4,30.03,North,0,0.0,0.0,81,0.00,,FEW024,0.00,VWS V14.01,2013-05-24 04:52:00,
2013-05-24 00:57:00,44.9,39.4,30.03,NNW,339,0.0,0.0,81,0.00,,FEW024,0.00,VWS V14.01,2013-05-24 04:57:00,
2013-05-24 01:02:00,44.9,39.4,30.03,NNW,340,0.0,0.0,81,0.00,,FEW024,0.00,VWS V14.01,2013-05-24 05:02:00,
2013-05-24 01:12:00,45.1,39.6,30.03,North,359,0.0,0.0,81,0.00,,FEW024,0.00,VWS V14.01,2013-05-24 05:12:00,
2013-05-24 01:17:00,44.8,39.3,30.04,North,1,0.0,0.0,81,0.00,,FEW024,0.00,VWS V14.01,2013-05-24 05:17:00,
2013-05-24 01:22:00,44.5,39.0,30.04,NNW,347,0.0,0.0,81,0.00,,FEW024,0.00,VWS V14.01,2013-05-24 05:22:00,
2013-05-24 01:27:00,43.9,38.8,30.04,NNW,339,0.0,0.0,82,0.00,,FEW024,0.00,VWS V14.01,2013-05-24 05:27:00,
2013-05-24 01:32:00,43.6,38.5,30.04,North,3,0.0,0.0,82,0.00,,FEW024,0.00,VWS V14.01,2013-05-24 05:32:00,
2013-05-24 01:42:00,43.3,38.5,30.04,North,359,0.0,0.0,83,0.00,,FEW024,0.00,VWS V14.01,2013-05-24 05:42:00,
2013-05-24 01:47:00,43.2,38.7,30.05,North,353,0.0,0.0,84,0.00,,FEW024,0.00,VWS V14.01,2013-05-24 05:47:00,
2013-05-24 01:57:00,42.9,38.4,30.05,North,352,0.0,0.0,84,0.00,,FEW024,0.00,VWS V14.01,2013-05-24 05:57:00,
2013-05-24 02:02:00,42.8,38.6,30.04,NNW,347,0.0,0.0,85,0.00,,SCT029,0.00,VWS V14.01,2013-05-24 06:02:00,
2013-05-24 02:12:00,42.8,38.6,30.04,North,7,0.0,0.0,85,0.00,,SCT029,0.00,VWS V14.01,2013-05-24 06:12:00,
2013-05-24 02:17:00,42.6,38.4,30.05,North,357,0.0,0.0,85,0.00,,SCT029,0.00,VWS V14.01,2013-05-24 06:17:00,
2013-05-24 02:22:00,42.3,38.1,30.05,North,6,0.0,0.0,85,0.00,,SCT029,0.00,VWS V14.01,2013-05-24 06:22:00,
2013-05-24 02:27:00,42.2,38.3,30.05,North,1,0.0,0.0,86,0.00,,SCT029,0.00,VWS V14.01,2013-05-24 06:27:00,
2013-05-24 02:32:00,42.2,38.3,30.05,NNE,13,0.0,0.0,86,0.00,,SCT029,0.00,VWS V14.01,2013-05-24 06:32:00,
2013-05-24 02:37:00,41.9,38.0,30.05,North,7,0.0,0.0,86,0.00,,SCT029,0.00,VWS V14.01,2013-05-24 06:37:00,
2013-05-24 02:42:00,41.9,38.0,30.05,North,0,0.0,0.0,86,0.00,,SCT029,0.00,VWS V14.01,2013-05-24 06:42:00,
2013-05-24 02:52:00,41.5,37.9,30.05,North,353,0.0,0.0,87,0.00,,SCT029,0.00,VWS V14.01,2013-05-24 06:52:00,
2013-05-24 02:57:00,41.5,37.9,30.05,NNE,16,0.0,0.0,87,0.00,,SCT029,0.00,VWS V14.01,2013-05-24 06:57:00,
2013-05-24 03:02:00,41.3,37.7,30.06,North,7,0.0,0.0,87,0.00,,CLR,0.00,VWS V14.01,2013-05-24 07:02:00,
2013-05-24 03:12:00,41.3,38.0,30.06,North,1,0.0,0.0,88,0.00,,CLR,0.00,VWS V14.01,2013-05-24 07:12:00,
2013-05-24 03:17:00,41.3,38.0,30.07,North,4,0.0,0.0,88,0.00,,CLR,0.00,VWS V14.01,2013-05-24 07:17:00,
2013-05-24 03:27:00,41.3,38.0,30.07,NNE,23,0.0,0.0,88,0.00,,CLR,0.00,VWS V14.01,2013-05-24 07:27:00,
2013-05-24 03:32:00,41.3,38.0,30.07,North,3,0.0,0.0,88,0.00,,CLR,0.00,VWS V14.01,2013-05-24 07:32:00,
2013-05-24 03:37:00,41.3,38.0,30.07,North,11,0.0,0.0,88,0.00,,CLR,0.00,VWS V14.01,2013-05-24 07:37:00,
2013-05-24 03:42:00,41.2,37.9,30.07,NE,34,0.0,0.0,88,0.00,,CLR,0.00,VWS V14.01,2013-05-24 07:42:00,
2013-05-24 03:47:00,41.3,38.0,30.07,North,1,0.0,0.0,88,0.00,,CLR,0.00,VWS V14.01,2013-05-24 07:47:00,
2013-05-24 03:52:00,41.3,38.0,30.07,NNE,21,0.0,0.0,88,0.00,,CLR,0.00,VWS V14.01,2013-05-24 07:52:00,
2013-05-24 03:57:00,41.3,38.0,30.07,NNE,14,0.0,0.0,88,0.00,,CLR,0.00,VWS V14.01,2013-05-24 07:57:00,
2013-05-24 04:07:00,41.1,37.8,30.07,NNE,31,0.0,0.0,88,0.00,,CLR,0.00,VWS V14.01,2013-05-24 08:07:00,
2013-05-24 04:12:00,40.9,37.6,30.07,NNE,28,0.0,0.0,88,0.00,,CLR,0.00,VWS V14.01,2013-05-24 08:12:00,
2013-05-24 04:17:00,41.1,37.8,30.07,North,4,0.0,0.0,88,0.00,,CLR,0.00,VWS V14.01,2013-05-24 08:17:00,
2013-05-24 04:27:00,40.9,37.6,30.07,NNE,23,0.0,0.0,88,0.00,,CLR,0.00,VWS V14.01,2013-05-24 08:27:00,
2013-05-24 04:32:00,40.9,37.6,30.07,NNE,31,0.0,0.0,88,0.00,,CLR,0.00,VWS V14.01,2013-05-24 08:32:00,
2013-05-24 04:42:00,40.5,37.5,30.07,NE,45,0.0,0.0,89,0.00,,CLR,0.00,VWS V14.01,2013-05-24 08:42:00,
2013-05-24 04:47:00,40.3,37.3,30.08,NE,45,0.0,0.0,89,0.00,,CLR,0.00,VWS V14.01,2013-05-24 08:47:00,
2013-05-24 04:52:00,40.2,37.2,30.08,NE,45,0.0,0.0,89,0.00,,CLR,0.00,VWS V14.01,2013-05-24 08:52:00,
2013-05-24 04:57:00,40.3,37.3,30.08,NE,42,0.0,0.0,89,0.00,,CLR,0.00,VWS V14.01,2013-05-24 08:57:00,
2013-05-24 05:02:00,40.2,37.2,30.09,NE,41,0.0,0.0,89,0.00,,CLR,0.00,VWS V14.01,2013-05-24 09:02:00,
2013-05-24 05:12:00,40.2,37.2,30.09,NNE,32,0.0,0.0,89,0.00,,CLR,0.00,VWS V14.01,2013-05-24 09:12:00,
2013-05-24 05:17:00,40.1,37.1,30.09,NNE,32,0.0,0.0,89,0.00,,CLR,0.00,VWS V14.01,2013-05-24 09:17:00,
2013-05-24 05:22:00,39.9,36.9,30.09,NNE,32,0.0,0.0,89,0.00,,CLR,0.00,VWS V14.01,2013-05-24 09:22:00,
2013-05-24 05:32:00,39.6,36.6,30.09,NNE,32,0.0,0.0,89,0.00,,CLR,0.00,VWS V14.01,2013-05-24 09:32:00,
2013-05-24 05:42:00,39.2,36.2,30.09,NNE,32,0.0,0.0,89,0.00,,CLR,0.00,VWS V14.01,2013-05-24 09:42:00,
2013-05-24 05:47:00,39.2,36.5,30.10,NNE,32,0.0,0.0,90,0.00,,CLR,0.00,VWS V14.01,2013-05-24 09:47:00,
2013-05-24 05:52:00,39.2,36.5,30.10,NNE,32,0.0,0.0,90,0.00,,CLR,0.00,VWS V14.01,2013-05-24 09:52:00,
2013-05-24 05:57:00,39.1,36.4,30.10,NNE,32,0.0,0.0,90,0.00,,CLR,0.00,VWS V14.01,2013-05-24 09:57:00,
2013-05-24 06:02:00,39.1,36.4,30.10,NNE,32,0.0,0.0,90,0.00,,CLR,0.00,VWS V14.01,2013-05-24 10:02:00,
2013-05-24 06:12:00,39.1,36.4,30.10,North,0,0.0,0.0,90,0.00,,CLR,0.00,VWS V14.01,2013-05-24 10:12:00,
2013-05-24 06:22:00,38.9,36.2,30.11,North,0,0.0,0.0,90,0.00,,CLR,0.00,VWS V14.01,2013-05-24 10:22:00,
2013-05-24 06:32:00,38.8,36.1,30.12,North,0,0.0,0.0,90,0.00,,CLR,0.00,VWS V14.01,2013-05-24 10:32:00,
2013-05-24 06:42:00,38.8,36.1,30.12,NNE,16,0.0,0.0,90,0.00,,CLR,0.00,VWS V14.01,2013-05-24 10:42:00,
2013-05-24 06:47:00,38.9,35.9,30.12,NNE,18,0.0,0.0,89,0.00,,CLR,0.00,VWS V14.01,2013-05-24 10:47:00,
2013-05-24 06:57:00,39.2,36.2,30.12,NNE,16,0.0,0.0,89,0.00,,CLR,0.00,VWS V14.01,2013-05-24 10:57:00,
2013-05-24 07:02:00,39.3,36.3,30.13,North,7,0.0,0.0,89,0.00,,CLR,0.00,VWS V14.01,2013-05-24 11:02:00,
2013-05-24 07:07:00,39.5,36.5,30.13,NNE,30,0.0,0.0,89,0.00,,CLR,0.00,VWS V14.01,2013-05-24 11:07:00,
2013-05-24 07:12:00,39.6,36.3,30.13,NNE,30,0.0,0.0,88,0.00,,CLR,0.00,VWS V14.01,2013-05-24 11:12:00,
2013-05-24 07:17:00,39.9,36.6,30.14,NNE,17,0.0,0.0,88,0.00,,CLR,0.00,VWS V14.01,2013-05-24 11:17:00,
2013-05-24 07:27:00,40.1,36.3,30.14,NNE,21,0.0,0.0,86,0.00,,CLR,0.00,VWS V14.01,2013-05-24 11:27:00,
2013-05-24 07:32:00,40.3,36.5,30.14,NNE,24,0.0,0.0,86,0.00,,CLR,0.00,VWS V14.01,2013-05-24 11:32:00,
2013-05-24 07:37:00,40.5,36.3,30.14,North,11,0.0,0.0,85,0.00,,CLR,0.00,VWS V14.01,2013-05-24 11:37:00,
2013-05-24 07:47:00,40.9,36.5,30.15,NNE,23,0.0,0.0,84,0.00,,CLR,0.00,VWS V14.01,2013-05-24 11:47:00,
2013-05-24 07:52:00,41.2,36.7,30.15,North,6,0.0,0.0,84,0.00,,CLR,0.00,VWS V14.01,2013-05-24 11:52:00,
2013-05-24 07:57:00,41.5,36.7,30.15,NE,38,0.0,0.0,83,0.00,,CLR,0.00,VWS V14.01,2013-05-24 11:57:00,
2013-05-24 08:02:00,41.6,36.5,30.16,NNE,25,0.0,0.0,82,0.00,,CLR,0.00,VWS V14.01,2013-05-24 12:02:00,
2013-05-24 08:12:00,41.9,36.2,30.16,NNE,21,0.0,0.0,80,0.00,,CLR,0.00,VWS V14.01,2013-05-24 12:12:00,
2013-05-24 08:17:00,42.1,36.4,30.17,NNE,23,0.0,0.0,80,0.00,,CLR,0.00,VWS V14.01,2013-05-24 12:17:00,
2013-05-24 08:22:00,42.1,36.1,30.17,NNW,344,0.0,0.0,79,0.00,,CLR,0.00,VWS V14.01,2013-05-24 12:22:00,
2013-05-24 08:32:00,42.6,36.5,30.17,NE,44,0.0,0.0,79,0.00,,CLR,0.00,VWS V14.01,2013-05-24 12:32:00,
2013-05-24 08:37:00,42.6,36.5,30.17,NNE,27,0.0,0.0,79,0.00,,CLR,0.00,VWS V14.01,2013-05-24 12:37:00,
2013-05-24 08:42:00,42.8,36.4,30.17,NNE,23,0.0,0.0,78,0.00,,CLR,0.00,VWS V14.01,2013-05-24 12:42:00,
2013-05-24 08:47:00,42.8,36.1,30.18,NNE,25,0.0,0.0,77,0.00,,CLR,0.00,VWS V14.01,2013-05-24 12:47:00,
2013-05-24 08:57:00,43.3,36.3,30.18,NE,44,0.0,0.0,76,0.00,,CLR,0.00,VWS V14.01,2013-05-24 12:57:00,
2013-05-24 09:02:00,43.5,36.1,30.18,North,6,0.0,0.0,75,0.00,,CLR,0.00,VWS V14.01,2013-05-24 13:02:00,
2013-05-24 09:12:00,44.1,36.7,30.18,NE,34,0.0,0.0,75,0.00,,CLR,0.00,VWS V14.01,2013-05-24 13:12:00,
2013-05-24 09:17:00,44.2,36.5,30.19,North,6,0.0,0.0,74,0.00,,CLR,0.00,VWS V14.01,2013-05-24 13:17:00,
2013-05-24 09:27:00,44.8,37.0,30.19,NE,41,0.0,0.0,74,0.00,,CLR,0.00,VWS V14.01,2013-05-24 13:27:00,
2013-05-24 09:32:00,45.5,37.0,30.19,North,359,0.0,0.0,72,0.00,,CLR,0.00,VWS V14.01,2013-05-24 13:32:00,
2013-05-24 09:42:00,45.7,37.2,30.19,NNE,18,0.0,0.0,72,0.00,,CLR,0.00,VWS V14.01,2013-05-24 13:42:00,
2013-05-24 09:47:00,45.8,37.3,30.20,NNE,17,0.0,0.0,72,0.00,,CLR,0.00,VWS V14.01,2013-05-24 13:47:00,
2013-05-24 09:52:00,46.5,37.6,30.20,NE,55,0.0,0.0,71,0.00,,CLR,0.00,VWS V14.01,2013-05-24 13:52:00,
2013-05-24 09:57:00,46.7,37.5,30.20,North,353,0.0,0.0,70,0.00,,CLR,0.00,VWS V14.01,2013-05-24 13:57:00,
2013-05-24 10:02:00,46.7,37.1,30.20,NNE,32,0.0,0.0,69,0.00,,FEW012,0.00,VWS V14.01,2013-05-24 14:02:00,
2013-05-24 10:12:00,47.4,37.4,30.20,NNE,31,0.0,0.0,68,0.00,,FEW012,0.00,VWS V14.01,2013-05-24 14:12:00,
2013-05-24 10:17:00,47.3,36.9,30.20,NE,40,0.0,0.0,67,0.00,,FEW012,0.00,VWS V14.01,2013-05-24 14:17:00,
2013-05-24 10:27:00,47.9,37.1,30.20,North,0,0.0,0.0,66,0.00,,FEW012,0.00,VWS V14.01,2013-05-24 14:27:00,
2013-05-24 10:32:00,48.2,37.4,30.20,NNE,31,0.0,0.0,66,0.00,,FEW012,0.00,VWS V14.01,2013-05-24 14:32:00,
2013-05-24 10:37:00,48.5,37.3,30.20,NNE,28,0.0,0.0,65,0.00,,FEW012,0.00,VWS V14.01,2013-05-24 14:37:00,
2013-05-24 10:42:00,48.8,37.2,30.20,North,353,0.0,0.0,64,0.00,,FEW012,0.00,VWS V14.01,2013-05-24 14:42:00,
2013-05-24 10:47:00,49.5,38.6,30.21,North,352,0.0,0.0,66,0.00,,FEW012,0.00,VWS V14.01,2013-05-24 14:47:00,
2013-05-24 10:52:00,49.9,36.6,30.21,North,6,0.0,0.0,60,0.00,,FEW012,0.00,VWS V14.01,2013-05-24 14:52:00,
2013-05-24 10:57:00,49.9,36.6,30.21,North,4,0.0,0.0,60,0.00,,FEW012,0.00,VWS V14.01,2013-05-24 14:57:00,
2013-05-24 11:02:00,50.4,36.6,30.21,NNE,25,0.0,0.0,59,0.00,,FEW012,0.00,VWS V14.01,2013-05-24 15:02:00,
2013-05-24 11:12:00,50.4,36.2,30.21,North,352,0.0,0.0,58,0.00,,FEW012,0.00,VWS V14.01,2013-05-24 15:12:00,
2013-05-24 11:17:00,50.1,35.9,30.21,NNW,330,0.0,0.0,58,0.00,,FEW012,0.00,VWS V14.01,2013-05-24 15:17:00,
2013-05-24 11:22:00,50.1,36.3,30.21,NNE,21,0.0,0.0,59,0.00,,FEW012,0.00,VWS V14.01,2013-05-24 15:22:00,
2013-05-24 11:27:00,50.7,36.9,30.21,NW,312,0.0,0.0,59,0.00,,FEW012,0.00,VWS V14.01,2013-05-24 15:27:00,
2013-05-24 11:32:00,50.8,34.8,30.21,NNE,18,0.0,0.0,54,0.00,,FEW012,0.00,VWS V14.01,2013-05-24 15:32:00,
2013-05-24 11:37:00,51.3,35.2,30.21,NE,34,0.0,0.0,54,0.00,,FEW012,0.00,VWS V14.01,2013-05-24 15:37:00,
2013-05-24 11:42:00,51.6,36.9,30.21,NNW,335,0.0,0.0,57,0.00,,FEW012,0.00,VWS V14.01,2013-05-24 15:42:00,
2013-05-24 11:47:00,51.4,34.4,30.21,NNW,329,0.0,0.0,52,0.00,,FEW012,0.00,VWS V14.01,2013-05-24 15:47:00,
2013-05-24 11:52:00,52.0,34.9,30.21,North,11,0.0,0.0,52,0.00,,FEW012,0.00,VWS V14.01,2013-05-24 15:52:00,
2013-05-24 11:57:00,52.3,35.7,30.21,NNE,31,0.0,0.0,53,0.00,,FEW012,0.00,VWS V14.01,2013-05-24 15:57:00,
2013-05-24 12:02:00,52.3,35.7,30.20,NE,35,0.0,0.0,53,0.00,,FEW024,0.00,VWS V14.01,2013-05-24 16:02:00,
2013-05-24 12:12:00,53.1,38.3,30.20,NW,319,0.0,0.0,57,0.00,,FEW024,0.00,VWS V14.01,2013-05-24 16:12:00,
2013-05-24 12:17:00,52.8,36.2,30.20,North,1,0.0,0.0,53,0.00,,FEW024,0.00,VWS V14.01,2013-05-24 16:17:00,
2013-05-24 12:22:00,52.8,35.7,30.20,NNE,23,0.0,0.0,52,0.00,,FEW024,0.00,VWS V14.01,2013-05-24 16:22:00,
2013-05-24 12:32:00,53.3,37.1,30.20,NNE,27,0.0,0.0,54,0.00,,FEW024,0.00,VWS V14.01,2013-05-24 16:32:00,
2013-05-24 12:37:00,53.6,36.4,30.20,NNE,25,0.0,0.0,52,0.00,,FEW024,0.00,VWS V14.01,2013-05-24 16:37:00,
2013-05-24 12:42:00,53.8,36.1,30.20,NNW,339,0.0,0.0,51,0.00,,FEW024,0.00,VWS V14.01,2013-05-24 16:42:00,
2013-05-24 12:52:00,53.5,35.3,30.21,NW,305,0.0,0.0,50,0.00,,FEW024,0.00,VWS V14.01,2013-05-24 16:52:00,
2013-05-24 12:57:00,54.5,35.2,30.21,North,1,0.0,0.0,48,0.00,,FEW024,0.00,VWS V14.01,2013-05-24 16:57:00,
2013-05-24 13:02:00,54.4,36.2,30.21,NNE,32,0.0,0.0,50,0.00,,CLR,0.00,VWS V14.01,2013-05-24 17:02:00,
2013-05-24 13:12:00,54.8,36.5,30.21,North,353,0.0,0.0,50,0.00,,CLR,0.00,VWS V14.01,2013-05-24 17:12:00,
2013-05-24 13:17:00,55.1,36.8,30.20,NW,322,0.0,0.0,50,0.00,,CLR,0.00,VWS V14.01,2013-05-24 17:17:00,
2013-05-24 13:22:00,55.3,35.4,30.20,North,354,0.0,0.0,47,0.00,,CLR,0.00,VWS V14.01,2013-05-24 17:22:00,
2013-05-24 13:27:00,55.4,35.0,30.20,NNE,32,0.0,0.0,46,0.00,,CLR,0.00,VWS V14.01,2013-05-24 17:27:00,
2013-05-24 13:32:00,55.6,35.2,30.20,North,7,0.0,0.0,46,0.00,,CLR,0.00,VWS V14.01,2013-05-24 17:32:00,
2013-05-24 13:37:00,55.7,35.3,30.20,NE,38,0.0,0.0,46,0.00,,CLR,0.00,VWS V14.01,2013-05-24 17:37:00,
2013-05-24 13:42:00,55.9,36.0,30.20,NNE,13,0.0,0.0,47,0.00,,CLR,0.00,VWS V14.01,2013-05-24 17:42:00,
2013-05-24 13:47:00,55.3,35.4,30.19,North,354,0.0,0.0,47,0.00,,CLR,0.00,VWS V14.01,2013-05-24 17:47:00,
2013-05-24 13:52:00,56.5,36.0,30.19,North,356,0.0,0.0,46,0.00,,CLR,0.00,VWS V14.01,2013-05-24 17:52:00,
2013-05-24 13:57:00,56.7,36.2,30.19,NE,38,0.0,0.0,46,0.00,,CLR,0.00,VWS V14.01,2013-05-24 17:57:00,
2013-05-24 14:02:00,57.0,35.9,30.19,North,10,0.0,0.0,45,0.00,,FEW032,0.00,VWS V14.01,2013-05-24 18:02:00,
2013-05-24 14:07:00,56.2,34.0,30.19,NNW,346,0.0,0.0,43,0.00,,FEW032,0.00,VWS V14.01,2013-05-24 18:07:00,
2013-05-24 14:17:00,56.5,36.0,30.20,NNE,24,0.0,0.0,46,0.00,,FEW032,0.00,VWS V14.01,2013-05-24 18:17:00,
2013-05-24 14:27:00,56.5,34.9,30.20,NW,326,0.0,0.0,44,0.00,,FEW032,0.00,VWS V14.01,2013-05-24 18:27:00,
2013-05-24 14:32:00,56.5,34.9,30.19,NNW,335,0.0,0.0,44,0.00,,FEW032,0.00,VWS V14.01,2013-05-24 18:32:00,
2013-05-24 14:37:00,57.0,34.8,30.19,NNE,18,0.0,0.0,43,0.00,,FEW032,0.00,VWS V14.01,2013-05-24 18:37:00,
2013-05-24 14:42:00,57.6,34.7,30.19,North,353,0.0,0.0,42,0.00,,FEW032,0.00,VWS V14.01,2013-05-24 18:42:00,
2013-05-24 14:52:00,58.0,34.5,30.19,NE,45,0.0,0.0,41,0.00,,FEW032,0.00,VWS V14.01,2013-05-24 18:52:00,
2013-05-24 14:57:00,58.0,34.5,30.19,NW,326,0.0,0.0,41,0.00,,FEW032,0.00,VWS V14.01,2013-05-24 18:57:00,
2013-05-24 15:02:00,57.8,33.7,30.19,North,1,0.0,0.0,40,0.00,,CLR,0.00,VWS V14.01,2013-05-24 19:02:00,
2013-05-24 15:12:00,58.6,35.0,30.19,NNE,14,0.0,0.0,41,0.00,,CLR,0.00,VWS V14.01,2013-05-24 19:12:00,
2013-05-24 15:17:00,59.2,35.5,30.19,NNE,21,0.0,0.0,41,0.00,,CLR,0.00,VWS V14.01,2013-05-24 19:17:00,
2013-05-24 15:22:00,58.7,33.8,30.19,NNW,335,0.0,0.0,39,0.00,,CLR,0.00,VWS V14.01,2013-05-24 19:22:00,
2013-05-24 15:27:00,59.0,36.0,30.19,North,357,0.0,0.0,42,0.00,,CLR,0.00,VWS V14.01,2013-05-24 19:27:00,
2013-05-24 15:32:00,59.2,36.1,30.18,NW,322,0.0,0.0,42,0.00,,CLR,0.00,VWS V14.01,2013-05-24 19:32:00,
2013-05-24 15:42:00,59.5,36.4,30.18,NW,322,0.0,0.0,42,0.00,,CLR,0.00,VWS V14.01,2013-05-24 19:42:00,
2013-05-24 15:47:00,59.3,36.8,30.19,North,359,0.0,0.0,43,0.00,,CLR,0.00,VWS V14.01,2013-05-24 19:47:00,
2013-05-24 15:57:00,58.9,37.6,30.19,NE,55,0.0,0.0,45,0.00,,CLR,0.00,VWS V14.01,2013-05-24 19:57:00,
2013-05-24 16:02:00,59.9,36.8,30.18,NNE,17,0.0,0.0,42,0.00,,CLR,0.00,VWS V14.01,2013-05-24 20:02:00,
2013-05-24 16:12:00,59.8,37.9,30.18,NE,41,0.0,0.0,44,0.00,,CLR,0.00,VWS V14.01,2013-05-24 20:12:00,
2013-05-24 16:17:00,59.5,35.8,30.17,NNE,17,0.0,0.0,41,0.00,,CLR,0.00,VWS V14.01,2013-05-24 20:17:00,
2013-05-24 16:27:00,59.8,35.5,30.17,NNE,14,0.0,0.0,40,0.00,,CLR,0.00,VWS V14.01,2013-05-24 20:27:00,
2013-05-24 16:32:00,59.5,35.8,30.16,North,0,0.0,0.0,41,0.00,,CLR,0.00,VWS V14.01,2013-05-24 20:32:00,
2013-05-24 16:37:00,59.3,35.6,30.16,NNE,18,0.0,0.0,41,0.00,,CLR,0.00,VWS V14.01,2013-05-24 20:37:00,
2013-05-24 16:42:00,58.9,35.3,30.16,North,1,0.0,0.0,41,0.00,,CLR,0.00,VWS V14.01,2013-05-24 20:42:00,
2013-05-24 16:47:00,59.8,34.2,30.16,NE,35,0.0,0.0,38,0.00,,CLR,0.00,VWS V14.01,2013-05-24 20:47:00,
2013-05-24 16:52:00,59.9,34.2,30.16,North,8,0.0,0.0,38,0.00,,CLR,0.00,VWS V14.01,2013-05-24 20:52:00,
2013-05-24 16:57:00,59.3,35.0,30.16,North,352,0.0,0.0,40,0.00,,CLR,0.00,VWS V14.01,2013-05-24 20:57:00,
2013-05-24 17:02:00,59.2,34.9,30.17,NNW,329,0.0,0.0,40,0.00,,CLR,0.00,VWS V14.01,2013-05-24 21:02:00,
2013-05-24 17:12:00,58.9,33.4,30.17,North,0,0.0,0.0,38,0.00,,CLR,0.00,VWS V14.01,2013-05-24 21:12:00,
2013-05-24 17:22:00,59.2,34.3,30.17,NNW,346,0.0,0.0,39,0.00,,CLR,0.00,VWS V14.01,2013-05-24 21:22:00,
2013-05-24 17:27:00,59.3,34.4,30.17,North,4,0.0,0.0,39,0.00,,CLR,0.00,VWS V14.01,2013-05-24 21:27:00,
2013-05-24 17:37:00,59.8,34.2,30.16,NNE,30,0.0,0.0,38,0.00,,CLR,0.00,VWS V14.01,2013-05-24 21:37:00,
2013-05-24 17:42:00,59.3,33.7,30.16,NNE,27,0.0,0.0,38,0.00,,CLR,0.00,VWS V14.01,2013-05-24 21:42:00,
2013-05-24 17:47:00,59.2,34.9,30.16,North,1,0.0,0.0,40,0.00,,CLR,0.00,VWS V14.01,2013-05-24 21:47:00,
2013-05-24 17:52:00,59.2,34.9,30.16,NNE,13,0.0,0.0,40,0.00,,CLR,0.00,VWS V14.01,2013-05-24 21:52:00,
2013-05-24 18:02:00,59.3,33.7,30.15,NNE,24,0.0,0.0,38,0.00,,CLR,0.00,VWS V14.01,2013-05-24 22:02:00,
2013-05-24 18:07:00,59.3,33.7,30.15,NE,47,0.0,0.0,38,0.00,,CLR,0.00,VWS V14.01,2013-05-24 22:07:00,
2013-05-24 18:12:00,59.6,34.6,30.15,NNE,28,0.0,0.0,39,0.00,,CLR,0.00,VWS V14.01,2013-05-24 22:12:00,
2013-05-24 18:22:00,59.6,35.3,30.14,North,6,0.0,0.0,40,0.00,,CLR,0.00,VWS V14.01,2013-05-24 22:22:00,
2013-05-24 18:27:00,59.6,33.3,30.14,North,8,0.0,0.0,37,0.00,,CLR,0.00,VWS V14.01,2013-05-24 22:27:00,
2013-05-24 18:32:00,59.3,33.0,30.14,North,11,0.0,0.0,37,0.00,,CLR,0.00,VWS V14.01,2013-05-24 22:32:00,
2013-05-24 18:37:00,59.3,31.7,30.14,North,7,0.0,0.0,35,0.00,,CLR,0.00,VWS V14.01,2013-05-24 22:37:00,
2013-05-24 18:42:00,59.5,33.2,30.14,NE,56,0.0,0.0,37,0.00,,CLR,0.00,VWS V14.01,2013-05-24 22:42:00,
2013-05-24 18:52:00,59.3,34.4,30.13,NNE,24,0.0,0.0,39,0.00,,CLR,0.00,VWS V14.01,2013-05-24 22:52:00,
2013-05-24 18:57:00,59.2,34.9,30.13,NE,45,0.0,0.0,40,0.00,,CLR,0.00,VWS V14.01,2013-05-24 22:57:00,
2013-05-24 19:02:00,59.5,35.8,30.13,NE,44,0.0,0.0,41,0.00,,CLR,0.00,VWS V14.01,2013-05-24 23:02:00,
2013-05-24 19:07:00,59.2,33.6,30.13,NE,42,0.0,0.0,38,0.00,,CLR,0.00,VWS V14.01,2013-05-24 23:07:00,
2013-05-24 19:17:00,58.9,34.0,30.12,NNE,21,0.0,0.0,39,0.00,,CLR,0.00,VWS V14.01,2013-05-24 23:17:00,
2013-05-24 19:27:00,58.9,35.3,30.12,NNE,13,0.0,0.0,41,0.00,,CLR,0.00,VWS V14.01,2013-05-24 23:27:00,
2013-05-24 19:32:00,58.7,34.5,30.11,NNE,31,0.0,0.0,40,0.00,,CLR,0.00,VWS V14.01,2013-05-24 23:32:00,
2013-05-24 19:37:00,58.6,34.4,30.11,NNE,17,0.0,0.0,40,0.00,,CLR,0.00,VWS V14.01,2013-05-24 23:37:00,
2013-05-24 19:42:00,58.7,33.8,30.11,NNE,30,0.0,0.0,39,0.00,,CLR,0.00,VWS V14.01,2013-05-24 23:42:00,
2013-05-24 19:52:00,58.4,32.9,30.11,NNE,28,0.0,0.0,38,0.00,,CLR,0.00,VWS V14.01,2013-05-24 23:52:00,
2013-05-24 19:57:00,58.4,33.6,30.11,North,359,0.0,0.0,39,0.00,,CLR,0.00,VWS V14.01,2013-05-24 23:57:00,
2013-05-24 20:02:00,58.4,32.9,30.12,NNE,30,0.0,0.0,38,0.00,,CLR,0.00,VWS V14.01,2013-05-25 00:02:00,
2013-05-24 20:12:00,58.1,33.9,30.12,North,1,0.0,0.0,40,0.00,,CLR,0.00,VWS V14.01,2013-05-25 00:12:00,
2013-05-24 20:17:00,58.1,33.3,30.12,North,1,0.0,0.0,39,0.00,,CLR,0.00,VWS V14.01,2013-05-25 00:17:00,
2013-05-24 20:22:00,58.0,33.2,30.12,North,357,0.0,0.0,39,0.00,,CLR,0.00,VWS V14.01,2013-05-25 00:22:00,
2013-05-24 20:27:00,57.6,34.1,30.12,NNE,13,0.0,0.0,41,0.00,,CLR,0.00,VWS V14.01,2013-05-25 00:27:00,
2013-05-24 20:32:00,57.3,33.8,30.12,NNE,13,0.0,0.0,41,0.00,,CLR,0.00,VWS V14.01,2013-05-25 00:32:00,
2013-05-24 20:37:00,57.3,33.8,30.12,NNE,13,0.0,0.0,41,0.00,,CLR,0.00,VWS V14.01,2013-05-25 00:37:00,
2013-05-24 20:42:00,57.2,33.1,30.12,NNE,13,0.0,0.0,40,0.00,,CLR,0.00,VWS V14.01,2013-05-25 00:42:00,
2013-05-24 20:52:00,56.6,33.2,30.12,North,10,0.0,0.0,41,0.00,,CLR,0.00,VWS V14.01,2013-05-25 00:52:00,
2013-05-24 20:57:00,56.3,34.1,30.12,North,10,0.0,0.0,43,0.00,,CLR,0.00,VWS V14.01,2013-05-25 00:57:00,
2013-05-24 21:02:00,56.0,34.4,30.12,North,10,0.0,0.0,44,0.00,,CLR,0.00,VWS V14.01,2013-05-25 01:02:00,
2013-05-24 21:12:00,55.3,34.3,30.12,NNW,347,0.0,0.0,45,0.00,,CLR,0.00,VWS V14.01,2013-05-25 01:12:00,
2013-05-24 21:22:00,54.7,35.4,30.13,NW,305,0.0,0.0,48,0.00,,CLR,0.00,VWS V14.01,2013-05-25 01:22:00,
2013-05-24 21:27:00,54.2,35.0,30.13,NW,325,0.0,0.0,48,0.00,,CLR,0.00,VWS V14.01,2013-05-25 01:27:00,
2013-05-24 21:32:00,53.8,35.6,30.14,NNW,336,0.0,0.0,50,0.00,,CLR,0.00,VWS V14.01,2013-05-25 01:32:00,
2013-05-24 21:37:00,53.3,35.2,30.14,NNW,332,0.0,0.0,50,0.00,,CLR,0.00,VWS V14.01,2013-05-25 01:37:00,
2013-05-24 21:42:00,53.1,35.5,30.14,NNW,333,0.0,0.0,51,0.00,,CLR,0.00,VWS V14.01,2013-05-25 01:42:00,
2013-05-24 21:52:00,52.3,35.2,30.14,NNW,332,0.0,0.0,52,0.00,,CLR,0.00,VWS V14.01,2013-05-25 01:52:00,
2013-05-24 21:57:00,52.0,35.4,30.14,NNW,333,0.0,0.0,53,0.00,,CLR,0.00,VWS V14.01,2013-05-25 01:57:00,
2013-05-24 22:02:00,51.7,35.6,30.15,NNW,329,0.0,0.0,54,0.00,,CLR,0.00,VWS V14.01,2013-05-25 02:02:00,
2013-05-24 22:12:00,51.1,35.0,30.15,NNW,328,0.0,0.0,54,0.00,,CLR,0.00,VWS V14.01,2013-05-25 02:12:00,
2013-05-24 22:22:00,50.5,35.0,30.15,NNW,332,0.0,0.0,55,0.00,,CLR,0.00,VWS V14.01,2013-05-25 02:22:00,
2013-05-24 22:32:00,49.9,34.8,30.15,NNW,332,0.0,0.0,56,0.00,,CLR,0.00,VWS V14.01,2013-05-25 02:32:00,
2013-05-24 22:37:00,49.5,34.9,30.15,NNW,332,0.0,0.0,57,0.00,,CLR,0.00,VWS V14.01,2013-05-25 02:37:00,
2013-05-24 22:47:00,49.1,35.0,30.16,NNW,332,0.0,0.0,58,0.00,,CLR,0.00,VWS V14.01,2013-05-25 02:47:00,
2013-05-24 22:52:00,48.9,34.8,30.16,NNW,332,0.0,0.0,58,0.00,,CLR,0.00,VWS V14.01,2013-05-25 02:52:00,
2013-05-24 22:57:00,48.8,34.7,30.16,North,0,0.0,0.0,58,0.00,,CLR,0.00,VWS V14.01,2013-05-25 02:57:00,
2013-05-24 23:02:00,48.5,34.4,30.17,NNW,343,0.0,0.0,58,0.00,,CLR,0.00,VWS V14.01,2013-05-25 03:02:00,
2013-05-24 23:12:00,48.0,33.9,30.17,NNW,343,0.0,0.0,58,0.00,,CLR,0.00,VWS V14.01,2013-05-25 03:12:00,
2013-05-24 23:17:00,47.9,33.8,30.17,NNW,344,0.0,0.0,58,0.00,,CLR,0.00,VWS V14.01,2013-05-25 03:17:00,
2013-05-24 23:27:00,47.7,33.7,30.17,North,352,0.0,0.0,58,0.00,,CLR,0.00,VWS V14.01,2013-05-25 03:27:00,
2013-05-24 23:32:00,47.6,34.0,30.17,North,352,0.0,0.0,59,0.00,,CLR,0.00,VWS V14.01,2013-05-25 03:32:00,
2013-05-24 23:42:00,47.1,33.5,30.17,North,352,0.0,0.0,59,0.00,,CLR,0.00,VWS V14.01,2013-05-25 03:42:00,
2013-05-24 23:47:00,47.1,33.9,30.17,North,352,0.0,0.0,60,0.00,,CLR,0.00,VWS V14.01,2013-05-25 03:47:00,
2013-05-24 23:52:00,46.8,34.1,30.17,North,353,0.0,0.0,61,0.00,,CLR,0.00,VWS V14.01,2013-05-25 03:52:00,
2013-05-24 23:57:00,46.7,34.0,30.17,North,353,0.0,0.0,61,0.00,,CLR,0.00,VWS V14.01,2013-05-25 03:57:00,